sensor_id;sensor_type;location;lat;lon;timestamp;pressure;altitude;pressure_sealevel;temperature;humidity
34586;BME280;20816;50.950;11.108;2024-01-15T00:00:15;96737.00;;;-0.06;100.00
34586;BME280;20816;50.950;11.108;2024-01-15T00:02:43;96728.47;;;-0.12;100.00
34586;BME280;20816;50.950;11.108;2024-01-15T00:05:09;96725.97;;;-0.21;100.00
34586;BME280;20816;50.950;11.108;2024-01-15T00:07:36;96731.94;;;-0.18;100.00
34586;BME280;20816;50.950;11.108;2024-01-15T00:10:03;96740.53;;;-0.17;100.00
34586;BME280;20816;50.950;11.108;2024-01-15T00:12:30;96733.66;;;-0.14;100.00
34586;BME280;20816;50.950;11.108;2024-01-15T00:14:57;96747.44;;;-0.16;100.00
34586;BME280;20816;50.950;11.108;2024-01-15T00:17:24;96742.28;;;-0.19;100.00
34586;BME280;20816;50.950;11.108;2024-01-15T00:19:50;96732.00;;;-0.22;100.00
34586;BME280;20816;50.950;11.108;2024-01-15T00:22:17;96727.66;;;-0.19;100.00
34586;BME280;20816;50.950;11.108;2024-01-15T00:24:44;96732.88;;;-0.26;100.00
34586;BME280;20816;50.950;11.108;2024-01-15T00:27:10;96729.44;;;-0.24;100.00
34586;BME280;20816;50.950;11.108;2024-01-15T00:29:37;96734.63;;;-0.24;100.00
34586;BME280;20816;50.950;11.108;2024-01-15T00:32:04;96730.31;;;-0.26;100.00
34586;BME280;20816;50.950;11.108;2024-01-15T00:34:31;96721.69;;;-0.25;100.00
34586;BME280;20816;50.950;11.108;2024-01-15T00:36:58;96730.31;;;-0.26;100.00
34586;BME280;20816;50.950;11.108;2024-01-15T00:39:25;96742.34;;;-0.22;100.00
34586;BME280;20816;50.950;11.108;2024-01-15T00:41:52;96746.66;;;-0.23;100.00
34586;BME280;20816;50.950;11.108;2024-01-15T00:44:19;96743.19;;;-0.22;100.00
34586;BME280;20816;50.950;11.108;2024-01-15T00:46:45;96714.78;;;-0.20;100.00
34586;BME280;20816;50.950;11.108;2024-01-15T00:49:13;96726.13;;;-0.38;100.00
34586;BME280;20816;50.950;11.108;2024-01-15T00:51:40;96734.72;;;-0.38;100.00
34586;BME280;20816;50.950;11.108;2024-01-15T00:54:07;96728.66;;;-0.31;100.00
34586;BME280;20816;50.950;11.108;2024-01-15T00:56:34;96737.25;;;-0.33;100.00
34586;BME280;20816;50.950;11.108;2024-01-15T00:59:01;96739.84;;;-0.35;100.00
34586;BME280;20816;50.950;11.108;2024-01-15T01:01:28;96728.72;;;-0.40;100.00
34586;BME280;20816;50.950;11.108;2024-01-15T01:03:55;96714.19;;;-0.50;100.00
34586;BME280;20816;50.950;11.108;2024-01-15T01:06:22;96722.84;;;-0.59;100.00
34586;BME280;20816;50.950;11.108;2024-01-15T01:08:49;96723.75;;;-0.61;100.00
34586;BME280;20816;50.950;11.108;2024-01-15T01:11:16;96732.34;;;-0.61;100.00
34586;BME280;20816;50.950;11.108;2024-01-15T01:13:42;96728.88;;;-0.55;100.00
34586;BME280;20816;50.950;11.108;2024-01-15T01:16:09;96734.78;;;-0.45;100.00
34586;BME280;20816;50.950;11.108;2024-01-15T01:18:36;96727.88;;;-0.43;100.00
34586;BME280;20816;50.950;11.108;2024-01-15T01:21:03;96731.31;;;-0.40;100.00
34586;BME280;20816;50.950;11.108;2024-01-15T01:23:30;96706.34;;;-0.38;100.00
34586;BME280;20816;50.950;11.108;2024-01-15T01:25:56;96711.50;;;-0.38;100.00
34586;BME280;20816;50.950;11.108;2024-01-15T01:28:23;96717.63;;;-0.48;100.00
34586;BME280;20816;50.950;11.108;2024-01-15T01:30:50;96722.78;;;-0.48;100.00
34586;BME280;20816;50.950;11.108;2024-01-15T01:33:17;96727.94;;;-0.46;100.00
34586;BME280;20816;50.950;11.108;2024-01-15T01:35:43;96723.63;;;-0.46;100.00
34586;BME280;20816;50.950;11.108;2024-01-15T01:38:11;96715.06;;;-0.51;100.00
34586;BME280;20816;50.950;11.108;2024-01-15T01:40:38;96718.47;;;-0.46;100.00
34586;BME280;20816;50.950;11.108;2024-01-15T01:43:05;96713.34;;;-0.49;100.00
34586;BME280;20816;50.950;11.108;2024-01-15T01:45:32;96728.75;;;-0.43;100.00
34586;BME280;20816;50.950;11.108;2024-01-15T01:48:00;96724.50;;;-0.47;100.00
34586;BME280;20816;50.950;11.108;2024-01-15T01:50:28;96721.88;;;-0.44;100.00
34586;BME280;20816;50.950;11.108;2024-01-15T01:52:56;96722.75;;;-0.45;100.00
34586;BME280;20816;50.950;11.108;2024-01-15T01:55:26;96718.50;;;-0.49;100.00
34586;BME280;20816;50.950;11.108;2024-01-15T01:57:54;96716.78;;;-0.53;100.00
34586;BME280;20816;50.950;11.108;2024-01-15T02:00:22;96718.50;;;-0.52;100.00
34586;BME280;20816;50.950;11.108;2024-01-15T02:02:49;96723.69;;;-0.55;100.00
34586;BME280;20816;50.950;11.108;2024-01-15T02:05:18;96723.66;;;-0.52;100.00
34586;BME280;20816;50.950;11.108;2024-01-15T02:07:47;96727.94;;;-0.48;99.84
34586;BME280;20816;50.950;11.108;2024-01-15T02:10:14;96728.72;;;-0.40;99.31
34586;BME280;20816;50.950;11.108;2024-01-15T02:12:42;96727.06;;;-0.45;99.81
34586;BME280;20816;50.950;11.108;2024-01-15T02:15:09;96724.50;;;-0.48;99.66
34586;BME280;20816;50.950;11.108;2024-01-15T02:17:56;96710.69;;;-0.44;98.94
34586;BME280;20816;50.950;11.108;2024-01-15T02:20:23;96703.03;;;-0.52;99.32
34586;BME280;20816;50.950;11.108;2024-01-15T02:22:49;96702.22;;;-0.55;99.41
34586;BME280;20816;50.950;11.108;2024-01-15T02:25:16;96704.81;;;-0.60;99.85
34586;BME280;20816;50.950;11.108;2024-01-15T02:27:43;96717.69;;;-0.59;99.44
34586;BME280;20816;50.950;11.108;2024-01-15T02:30:11;96724.59;;;-0.61;100.00
34586;BME280;20816;50.950;11.108;2024-01-15T02:32:39;96727.09;;;-0.50;99.76
34586;BME280;20816;50.950;11.108;2024-01-15T02:35:05;96733.97;;;-0.52;99.76
34586;BME280;20816;50.950;11.108;2024-01-15T02:37:32;96722.78;;;-0.49;99.91
34586;BME280;20816;50.950;11.108;2024-01-15T02:39:59;96715.91;;;-0.49;99.87
34586;BME280;20816;50.950;11.108;2024-01-15T02:42:27;96709.88;;;-0.48;99.49
34586;BME280;20816;50.950;11.108;2024-01-15T02:44:54;96717.72;;;-0.57;99.75
34586;BME280;20816;50.950;11.108;2024-01-15T02:47:21;96716.88;;;-0.61;100.00
34586;BME280;20816;50.950;11.108;2024-01-15T02:49:47;96704.78;;;-0.54;99.38
34586;BME280;20816;50.950;11.108;2024-01-15T02:52:14;96703.09;;;-0.57;99.64
34586;BME280;20816;50.950;11.108;2024-01-15T02:54:41;96704.72;;;-0.48;99.00
34586;BME280;20816;50.950;11.108;2024-01-15T02:57:07;96699.56;;;-0.48;98.63
34586;BME280;20816;50.950;11.108;2024-01-15T02:59:34;96707.38;;;-0.57;99.17
34586;BME280;20816;50.950;11.108;2024-01-15T03:02:01;96715.97;;;-0.55;99.50
34586;BME280;20816;50.950;11.108;2024-01-15T03:04:27;96717.66;;;-0.54;99.57
34586;BME280;20816;50.950;11.108;2024-01-15T03:06:54;96728.88;;;-0.60;99.88
34586;BME280;20816;50.950;11.108;2024-01-15T03:09:21;96723.69;;;-0.55;100.00
34586;BME280;20816;50.950;11.108;2024-01-15T03:11:47;96732.25;;;-0.50;100.00
34586;BME280;20816;50.950;11.108;2024-01-15T03:14:15;96715.91;;;-0.47;99.65
34586;BME280;20816;50.950;11.108;2024-01-15T03:16:41;96712.41;;;-0.43;99.55
34586;BME280;20816;50.950;11.108;2024-01-15T03:19:08;96715.09;;;-0.54;99.73
34586;BME280;20816;50.950;11.108;2024-01-15T03:21:35;96704.75;;;-0.52;100.00
34586;BME280;20816;50.950;11.108;2024-01-15T03:24:02;96697.94;;;-0.57;100.00
34586;BME280;20816;50.950;11.108;2024-01-15T03:26:28;96697.09;;;-0.62;100.00
34586;BME280;20816;50.950;11.108;2024-01-15T03:28:55;96701.47;;;-0.71;100.00
34586;BME280;20816;50.950;11.108;2024-01-15T03:31:22;96707.47;;;-0.69;100.00
34586;BME280;20816;50.950;11.108;2024-01-15T03:33:49;96704.09;;;-0.77;100.00
34586;BME280;20816;50.950;11.108;2024-01-15T03:36:15;96709.25;;;-0.76;100.00
34586;BME280;20816;50.950;11.108;2024-01-15T03:38:42;96706.66;;;-0.71;100.00
34586;BME280;20816;50.950;11.108;2024-01-15T03:41:09;96700.63;;;-0.70;100.00
34586;BME280;20816;50.950;11.108;2024-01-15T03:43:36;96695.41;;;-0.67;100.00
34586;BME280;20816;50.950;11.108;2024-01-15T03:46:02;96702.38;;;-0.75;100.00
34586;BME280;20816;50.950;11.108;2024-01-15T03:48:31;96704.97;;;-0.77;100.00
34586;BME280;20816;50.950;11.108;2024-01-15T03:50:58;96715.28;;;-0.78;100.00
34586;BME280;20816;50.950;11.108;2024-01-15T03:53:25;96725.56;;;-0.74;100.00
34586;BME280;20816;50.950;11.108;2024-01-15T03:55:52;96726.34;;;-0.66;100.00
34586;BME280;20816;50.950;11.108;2024-01-15T03:58:18;96730.66;;;-0.66;100.00
34586;BME280;20816;50.950;11.108;2024-01-15T04:00:45;96733.19;;;-0.60;100.00
34586;BME280;20816;50.950;11.108;2024-01-15T04:03:12;96740.03;;;-0.58;100.00
34586;BME280;20816;50.950;11.108;2024-01-15T04:05:39;96734.88;;;-0.58;100.00
34586;BME280;20816;50.950;11.108;2024-01-15T04:08:05;96744.41;;;-0.64;100.00
34586;BME280;20816;50.950;11.108;2024-01-15T04:10:32;96745.19;;;-0.54;100.00
34586;BME280;20816;50.950;11.108;2024-01-15T04:12:59;96757.31;;;-0.64;100.00
34586;BME280;20816;50.950;11.108;2024-01-15T04:15:28;96748.72;;;-0.63;100.00
34586;BME280;20816;50.950;11.108;2024-01-15T04:17:54;96739.25;;;-0.64;100.00
34586;BME280;20816;50.950;11.108;2024-01-15T04:20:21;96739.22;;;-0.61;100.00
34586;BME280;20816;50.950;11.108;2024-01-15T04:22:50;96740.97;;;-0.63;100.00
34586;BME280;20816;50.950;11.108;2024-01-15T04:25:17;96747.91;;;-0.71;100.00
34586;BME280;20816;50.950;11.108;2024-01-15T04:27:43;96749.72;;;-0.86;100.00
34586;BME280;20816;50.950;11.108;2024-01-15T04:30:10;96744.50;;;-0.76;100.00
34586;BME280;20816;50.950;11.108;2024-01-15T04:32:37;96754.84;;;-0.79;100.00
34586;BME280;20816;50.950;11.108;2024-01-15T04:35:04;96758.28;;;-0.80;100.00
34586;BME280;20816;50.950;11.108;2024-01-15T04:37:31;96754.00;;;-0.83;100.00
34586;BME280;20816;50.950;11.108;2024-01-15T04:39:57;96759.19;;;-0.86;100.00
34586;BME280;20816;50.950;11.108;2024-01-15T04:42:24;96768.66;;;-0.87;100.00
34586;BME280;20816;50.950;11.108;2024-01-15T04:44:51;96770.31;;;-0.82;100.00
34586;BME280;20816;50.950;11.108;2024-01-15T04:47:18;96765.13;;;-0.76;100.00
34586;BME280;20816;50.950;11.108;2024-01-15T04:49:44;96770.34;;;-0.81;100.00
34586;BME280;20816;50.950;11.108;2024-01-15T04:52:11;96774.56;;;-0.72;100.00
34586;BME280;20816;50.950;11.108;2024-01-15T04:54:39;96767.66;;;-0.69;100.00
34586;BME280;20816;50.950;11.108;2024-01-15T04:57:05;96762.41;;;-0.58;100.00
34586;BME280;20816;50.950;11.108;2024-01-15T04:59:32;96750.44;;;-0.68;100.00
34586;BME280;20816;50.950;11.108;2024-01-15T05:01:59;96753.75;;;-0.51;99.95
34586;BME280;20816;50.950;11.108;2024-01-15T05:04:25;96754.63;;;-0.52;99.54
34586;BME280;20816;50.950;11.108;2024-01-15T05:06:53;96747.78;;;-0.56;99.75
34586;BME280;20816;50.950;11.108;2024-01-15T05:09:20;96744.31;;;-0.49;99.25
34586;BME280;20816;50.950;11.108;2024-01-15T05:11:47;96742.59;;;-0.53;98.98
34586;BME280;20816;50.950;11.108;2024-01-15T05:14:13;96743.44;;;-0.52;99.20
34586;BME280;20816;50.950;11.108;2024-01-15T05:16:46;96742.69;;;-0.62;99.77
34586;BME280;20816;50.950;11.108;2024-01-15T05:19:14;96741.78;;;-0.60;99.27
34586;BME280;20816;50.950;11.108;2024-01-15T05:21:41;96732.34;;;-0.61;99.21
34586;BME280;20816;50.950;11.108;2024-01-15T05:24:08;96718.72;;;-0.76;99.67
34586;BME280;20816;50.950;11.108;2024-01-15T05:26:34;96710.97;;;-0.76;99.58
34586;BME280;20816;50.950;11.108;2024-01-15T05:29:01;96714.41;;;-0.77;99.70
34586;BME280;20816;50.950;11.108;2024-01-15T05:31:28;96713.66;;;-0.92;100.00
34586;BME280;20816;50.950;11.108;2024-01-15T05:33:54;96709.38;;;-0.93;100.00
34586;BME280;20816;50.950;11.108;2024-01-15T05:36:21;96689.59;;;-0.91;100.00
34586;BME280;20816;50.950;11.108;2024-01-15T05:38:48;96684.47;;;-0.94;100.00
34586;BME280;20816;50.950;11.108;2024-01-15T05:41:16;96674.16;;;-0.94;100.00
34586;BME280;20816;50.950;11.108;2024-01-15T05:43:43;96671.66;;;-1.03;100.00
34586;BME280;20816;50.950;11.108;2024-01-15T05:46:09;96688.00;;;-1.07;100.00
34586;BME280;20816;50.950;11.108;2024-01-15T05:48:36;96684.56;;;-1.06;100.00
34586;BME280;20816;50.950;11.108;2024-01-15T05:51:03;96680.28;;;-1.05;100.00
34586;BME280;20816;50.950;11.108;2024-01-15T05:53:30;96681.09;;;-1.02;100.00
34586;BME280;20816;50.950;11.108;2024-01-15T05:55:56;96677.59;;;-0.95;100.00
34586;BME280;20816;50.950;11.108;2024-01-15T05:58:23;96666.34;;;-0.86;100.00
34586;BME280;20816;50.950;11.108;2024-01-15T06:00:50;96672.34;;;-0.82;100.00
34586;BME280;20816;50.950;11.108;2024-01-15T06:03:17;96665.38;;;-0.74;100.00
34586;BME280;20816;50.950;11.108;2024-01-15T06:05:43;96656.78;;;-0.72;99.91
34586;BME280;20816;50.950;11.108;2024-01-15T06:08:10;96662.78;;;-0.70;99.74
34586;BME280;20816;50.950;11.108;2024-01-15T06:10:37;96663.59;;;-0.65;99.32
34586;BME280;20816;50.950;11.108;2024-01-15T06:13:04;96667.97;;;-0.76;99.35
34586;BME280;20816;50.950;11.108;2024-01-15T06:15:30;96677.44;;;-0.76;99.92
34586;BME280;20816;50.950;11.108;2024-01-15T06:17:57;96674.84;;;-0.72;98.95
34586;BME280;20816;50.950;11.108;2024-01-15T06:20:24;96678.31;;;-0.76;98.81
34586;BME280;20816;50.950;11.108;2024-01-15T06:22:50;96668.78;;;-0.69;98.66
34586;BME280;20816;50.950;11.108;2024-01-15T06:25:17;96657.56;;;-0.64;97.52
34586;BME280;20816;50.950;11.108;2024-01-15T06:27:44;96670.53;;;-0.74;98.20
34586;BME280;20816;50.950;11.108;2024-01-15T06:30:11;96662.81;;;-0.73;97.81
34586;BME280;20816;50.950;11.108;2024-01-15T06:32:38;96647.38;;;-0.77;97.96
34586;BME280;20816;50.950;11.108;2024-01-15T06:35:05;96653.41;;;-0.78;97.99
34586;BME280;20816;50.950;11.108;2024-01-15T06:37:32;96656.00;;;-0.80;97.71
34586;BME280;20816;50.950;11.108;2024-01-15T06:39:59;96632.81;;;-0.81;97.46
34586;BME280;20816;50.950;11.108;2024-01-15T06:42:26;96647.41;;;-0.79;97.16
34586;BME280;20816;50.950;11.108;2024-01-15T06:44:52;96651.69;;;-0.82;96.99
34586;BME280;20816;50.950;11.108;2024-01-15T06:47:19;96642.25;;;-0.80;96.57
34586;BME280;20816;50.950;11.108;2024-01-15T06:49:46;96646.53;;;-0.79;96.72
34586;BME280;20816;50.950;11.108;2024-01-15T06:52:12;96637.97;;;-0.85;96.72
34586;BME280;20816;50.950;11.108;2024-01-15T06:54:39;96643.16;;;-0.86;96.59
34586;BME280;20816;50.950;11.108;2024-01-15T06:57:06;96630.13;;;-0.74;95.60
34586;BME280;20816;50.950;11.108;2024-01-15T06:59:34;96637.06;;;-0.79;96.10
34586;BME280;20816;50.950;11.108;2024-01-15T07:02:02;96637.06;;;-0.77;95.67
34586;BME280;20816;50.950;11.108;2024-01-15T07:04:29;96634.44;;;-0.73;95.71
34586;BME280;20816;50.950;11.108;2024-01-15T07:06:56;96636.19;;;-0.73;95.27
34586;BME280;20816;50.950;11.108;2024-01-15T07:09:23;96639.63;;;-0.76;95.33
34586;BME280;20816;50.950;11.108;2024-01-15T07:11:49;96643.00;;;-0.69;94.65
34586;BME280;20816;50.950;11.108;2024-01-15T07:14:16;96658.38;;;-0.60;94.69
34586;BME280;20816;50.950;11.108;2024-01-15T07:16:43;96654.06;;;-0.58;94.41
34586;BME280;20816;50.950;11.108;2024-01-15T07:19:14;96657.50;;;-0.58;94.21
34586;BME280;20816;50.950;11.108;2024-01-15T07:21:40;96661.78;;;-0.55;93.63
34586;BME280;20816;50.950;11.108;2024-01-15T07:24:09;96668.63;;;-0.51;93.89
34586;BME280;20816;50.950;11.108;2024-01-15T07:26:37;96673.75;;;-0.48;93.29
34586;BME280;20816;50.950;11.108;2024-01-15T07:29:04;96679.72;;;-0.40;93.23
34586;BME280;20816;50.950;11.108;2024-01-15T07:31:31;96678.06;;;-0.50;93.52
34586;BME280;20816;50.950;11.108;2024-01-15T07:33:58;96671.22;;;-0.52;93.28
34586;BME280;20816;50.950;11.108;2024-01-15T07:36:28;96677.28;;;-0.58;94.38
34586;BME280;20816;50.950;11.108;2024-01-15T07:38:55;96677.28;;;-0.55;94.17
34586;BME280;20816;50.950;11.108;2024-01-15T07:41:22;96679.78;;;-0.50;93.65
34586;BME280;20816;50.950;11.108;2024-01-15T07:43:49;96687.53;;;-0.52;94.28
34586;BME280;20816;50.950;11.108;2024-01-15T07:46:16;96690.13;;;-0.52;94.23
34586;BME280;20816;50.950;11.108;2024-01-15T07:48:43;96690.91;;;-0.44;94.17
34586;BME280;20816;50.950;11.108;2024-01-15T07:51:10;96694.31;;;-0.39;93.69
34586;BME280;20816;50.950;11.108;2024-01-15T07:53:36;96684.09;;;-0.51;94.53
34586;BME280;20816;50.950;11.108;2024-01-15T07:56:03;96685.88;;;-0.54;94.71
34586;BME280;20816;50.950;11.108;2024-01-15T07:58:30;96687.59;;;-0.55;94.34
34586;BME280;20816;50.950;11.108;2024-01-15T08:00:57;96685.75;;;-0.41;94.04
34586;BME280;20816;50.950;11.108;2024-01-15T08:03:24;96684.00;;;-0.42;93.92
34586;BME280;20816;50.950;11.108;2024-01-15T08:05:51;96668.53;;;-0.42;93.72
34586;BME280;20816;50.950;11.108;2024-01-15T08:08:19;96668.59;;;-0.48;93.74
34586;BME280;20816;50.950;11.108;2024-01-15T08:10:47;96660.94;;;-0.55;93.68
34586;BME280;20816;50.950;11.108;2024-01-15T08:13:14;96668.69;;;-0.57;93.88
34586;BME280;20816;50.950;11.108;2024-01-15T08:15:41;96654.00;;;-0.52;93.90
34586;BME280;20816;50.950;11.108;2024-01-15T08:18:08;96658.28;;;-0.51;93.87
34586;BME280;20816;50.950;11.108;2024-01-15T08:20:35;96653.19;;;-0.54;93.69
34586;BME280;20816;50.950;11.108;2024-01-15T08:23:03;96653.13;;;-0.51;93.68
34586;BME280;20816;50.950;11.108;2024-01-15T08:25:30;96662.59;;;-0.51;93.84
34586;BME280;20816;50.950;11.108;2024-01-15T08:27:57;96660.88;;;-0.51;94.16
34586;BME280;20816;50.950;11.108;2024-01-15T08:30:23;96660.03;;;-0.53;93.40
34586;BME280;20816;50.950;11.108;2024-01-15T08:32:55;96654.91;;;-0.58;94.25
34586;BME280;20816;50.950;11.108;2024-01-15T08:35:25;96645.41;;;-0.52;93.95
34586;BME280;20816;50.950;11.108;2024-01-15T08:37:52;96649.72;;;-0.53;93.66
34586;BME280;20816;50.950;11.108;2024-01-15T08:40:19;96650.59;;;-0.54;93.42
34586;BME280;20816;50.950;11.108;2024-01-15T08:42:46;96659.09;;;-0.44;93.06
34586;BME280;20816;50.950;11.108;2024-01-15T08:45:13;96661.56;;;-0.34;92.86
34586;BME280;20816;50.950;11.108;2024-01-15T08:47:40;96663.31;;;-0.36;92.62
34586;BME280;20816;50.950;11.108;2024-01-15T08:50:07;96668.41;;;-0.30;92.58
34586;BME280;20816;50.950;11.108;2024-01-15T08:52:36;96673.38;;;-0.11;92.21
34586;BME280;20816;50.950;11.108;2024-01-15T08:55:04;96674.72;;;0.20;90.38
34586;BME280;20816;50.950;11.108;2024-01-15T08:57:31;96666.03;;;0.27;89.83
34586;BME280;20816;50.950;11.108;2024-01-15T08:59:57;96672.19;;;0.17;90.00
34586;BME280;20816;50.950;11.108;2024-01-15T09:02:25;96692.84;;;0.17;89.82
34586;BME280;20816;50.950;11.108;2024-01-15T09:04:52;96687.56;;;0.28;89.80
34586;BME280;20816;50.950;11.108;2024-01-15T09:07:19;96681.28;;;0.49;88.95
34586;BME280;20816;50.950;11.108;2024-01-15T09:09:45;96685.44;;;0.59;88.06
34586;BME280;20816;50.950;11.108;2024-01-15T09:12:12;96686.97;;;0.74;87.37
34586;BME280;20816;50.950;11.108;2024-01-15T09:14:42;96686.94;;;0.75;86.60
34586;BME280;20816;50.950;11.108;2024-01-15T09:17:08;96682.44;;;0.87;86.59
34586;BME280;20816;50.950;11.108;2024-01-15T09:19:35;96681.34;;;1.03;86.17
34586;BME280;20816;50.950;11.108;2024-01-15T09:22:02;96686.19;;;1.24;85.45
34586;BME280;20816;50.950;11.108;2024-01-15T09:24:29;96679.78;;;1.47;84.42
34586;BME280;20816;50.950;11.108;2024-01-15T09:26:56;96686.97;;;1.80;83.09
34586;BME280;20816;50.950;11.108;2024-01-15T09:29:22;96689.50;;;1.83;82.67
34586;BME280;20816;50.950;11.108;2024-01-15T09:31:51;96683.22;;;1.95;81.78
34586;BME280;20816;50.950;11.108;2024-01-15T09:34:18;96690.09;;;1.98;82.06
34586;BME280;20816;50.950;11.108;2024-01-15T09:36:45;96688.66;;;2.26;81.46
34586;BME280;20816;50.950;11.108;2024-01-15T09:39:12;96679.53;;;2.08;81.79
34586;BME280;20816;50.950;11.108;2024-01-15T09:41:39;96680.31;;;2.12;81.21
34586;BME280;20816;50.950;11.108;2024-01-15T09:44:06;96668.00;;;2.23;81.12
34586;BME280;20816;50.950;11.108;2024-01-15T09:46:38;96674.44;;;2.04;80.90
34586;BME280;20816;50.950;11.108;2024-01-15T09:49:05;96674.97;;;2.19;81.06
34586;BME280;20816;50.950;11.108;2024-01-15T09:51:32;96692.13;;;2.25;80.52
34586;BME280;20816;50.950;11.108;2024-01-15T09:53:59;96685.66;;;2.03;80.53
34586;BME280;20816;50.950;11.108;2024-01-15T09:56:25;96679.66;;;2.01;81.92
34586;BME280;20816;50.950;11.108;2024-01-15T09:58:52;96674.59;;;1.94;81.33
34586;BME280;20816;50.950;11.108;2024-01-15T10:01:23;96686.59;;;2.00;82.08
34586;BME280;20816;50.950;11.108;2024-01-15T10:03:50;96685.63;;;2.06;82.03
34586;BME280;20816;50.950;11.108;2024-01-15T10:06:17;96695.31;;;1.94;82.17
34586;BME280;20816;50.950;11.108;2024-01-15T10:08:51;96693.03;;;1.78;83.62
34586;BME280;20816;50.950;11.108;2024-01-15T10:11:18;96706.16;;;1.68;83.76
34586;BME280;20816;50.950;11.108;2024-01-15T10:13:46;96700.75;;;1.81;83.86
34586;BME280;20816;50.950;11.108;2024-01-15T10:16:16;96687.44;;;2.01;82.92
34586;BME280;20816;50.950;11.108;2024-01-15T10:18:42;96684.53;;;1.71;83.64
34586;BME280;20816;50.950;11.108;2024-01-15T10:21:09;96679.50;;;1.62;84.24
34586;BME280;20816;50.950;11.108;2024-01-15T10:23:36;96681.44;;;1.51;84.26
34586;BME280;20816;50.950;11.108;2024-01-15T10:26:03;96681.34;;;1.57;84.90
34586;BME280;20816;50.950;11.108;2024-01-15T10:28:30;96678.72;;;1.58;85.36
34586;BME280;20816;50.950;11.108;2024-01-15T10:30:59;96677.09;;;1.51;85.13
34586;BME280;20816;50.950;11.108;2024-01-15T10:33:26;96646.44;;;1.76;85.19
34586;BME280;20816;50.950;11.108;2024-01-15T10:35:57;96657.41;;;1.90;83.97
34586;BME280;20816;50.950;11.108;2024-01-15T10:38:26;96656.88;;;2.18;83.00
34586;BME280;20816;50.950;11.108;2024-01-15T10:40:54;96636.72;;;2.32;82.00
34586;BME280;20816;50.950;11.108;2024-01-15T10:43:21;96644.28;;;2.41;80.67
34586;BME280;20816;50.950;11.108;2024-01-15T10:45:53;96646.19;;;2.33;80.83
34586;BME280;20816;50.950;11.108;2024-01-15T10:48:20;96652.56;;;2.17;81.68
34586;BME280;20816;50.950;11.108;2024-01-15T10:50:47;96636.81;;;1.84;82.63
34586;BME280;20816;50.950;11.108;2024-01-15T10:53:16;96632.78;;;1.68;83.78
34586;BME280;20816;50.950;11.108;2024-01-15T10:55:43;96638.31;;;1.50;84.85
34586;BME280;20816;50.950;11.108;2024-01-15T10:58:13;96639.94;;;1.54;84.90
34586;BME280;20816;50.950;11.108;2024-01-15T11:00:41;96639.94;;;1.54;84.83
34586;BME280;20816;50.950;11.108;2024-01-15T11:03:08;96634.81;;;1.52;84.68
34586;BME280;20816;50.950;11.108;2024-01-15T11:05:40;96640.81;;;1.56;85.28
34586;BME280;20816;50.950;11.108;2024-01-15T11:08:08;96647.06;;;1.43;85.03
34586;BME280;20816;50.950;11.108;2024-01-15T11:10:46;96641.72;;;1.52;84.55
34586;BME280;20816;50.950;11.108;2024-01-15T11:13:39;96628.84;;;1.49;84.75
34586;BME280;20816;50.950;11.108;2024-01-15T11:16:07;96630.03;;;1.77;82.92
34586;BME280;20816;50.950;11.108;2024-01-15T11:18:43;96625.91;;;1.67;83.58
34586;BME280;20816;50.950;11.108;2024-01-15T11:28:58;96631.78;;;1.27;85.12
34586;BME280;20816;50.950;11.108;2024-01-15T11:31:28;96619.75;;;1.26;85.51
34586;BME280;20816;50.950;11.108;2024-01-15T11:33:55;96631.06;;;1.19;86.41
34586;BME280;20816;50.950;11.108;2024-01-15T11:42:03;96635.38;;;1.20;86.76
34586;BME280;20816;50.950;11.108;2024-01-15T11:44:30;96624.13;;;1.23;86.60
34586;BME280;20816;50.950;11.108;2024-01-15T11:46:58;96616.38;;;1.21;86.48
34586;BME280;20816;50.950;11.108;2024-01-15T11:49:42;96612.81;;;1.28;86.81
34586;BME280;20816;50.950;11.108;2024-01-15T11:52:17;96609.88;;;1.48;85.66
34586;BME280;20816;50.950;11.108;2024-01-15T11:54:49;96593.97;;;1.68;85.26
34586;BME280;20816;50.950;11.108;2024-01-15T11:57:37;96597.88;;;1.89;83.70
34586;BME280;20816;50.950;11.108;2024-01-15T12:00:08;96603.03;;;1.90;82.87
34586;BME280;20816;50.950;11.108;2024-01-15T12:02:36;96604.84;;;1.85;83.16
34586;BME280;20816;50.950;11.108;2024-01-15T12:05:03;96603.44;;;1.69;83.67
34586;BME280;20816;50.950;11.108;2024-01-15T12:07:29;96598.25;;;1.69;84.42
34586;BME280;20816;50.950;11.108;2024-01-15T12:09:56;96599.72;;;1.82;83.81
34586;BME280;20816;50.950;11.108;2024-01-15T12:12:39;96596.50;;;1.71;84.52
34586;BME280;20816;50.950;11.108;2024-01-15T12:15:11;96590.41;;;1.74;84.41
34586;BME280;20816;50.950;11.108;2024-01-15T12:17:38;96586.84;;;1.78;83.98
34586;BME280;20816;50.950;11.108;2024-01-15T12:20:05;96589.31;;;1.85;84.24
34586;BME280;20816;50.950;11.108;2024-01-15T12:22:32;96598.91;;;1.79;84.32
34586;BME280;20816;50.950;11.108;2024-01-15T12:25:19;96584.19;;;1.82;84.73
34586;BME280;20816;50.950;11.108;2024-01-15T12:27:46;96591.34;;;1.71;85.21
34586;BME280;20816;50.950;11.108;2024-01-15T12:30:14;96598.31;;;1.66;85.11
34586;BME280;20816;50.950;11.108;2024-01-15T12:32:42;96588.56;;;1.79;85.17
34586;BME280;20816;50.950;11.108;2024-01-15T12:35:10;96596.38;;;1.77;85.77
34586;BME280;20816;50.950;11.108;2024-01-15T12:37:39;96593.97;;;1.68;86.51
34586;BME280;20816;50.950;11.108;2024-01-15T12:40:07;96586.31;;;1.62;87.60
34586;BME280;20816;50.950;11.108;2024-01-15T12:42:37;96596.63;;;1.65;87.14
34586;BME280;20816;50.950;11.108;2024-01-15T12:45:06;96597.41;;;1.68;87.62
34586;BME280;20816;50.950;11.108;2024-01-15T12:47:33;96595.63;;;1.71;88.94
34586;BME280;20816;50.950;11.108;2024-01-15T12:50:00;96595.47;;;1.78;88.15
34586;BME280;20816;50.950;11.108;2024-01-15T12:52:41;96598.41;;;1.63;88.27
34586;BME280;20816;50.950;11.108;2024-01-15T12:55:10;96594.75;;;1.73;88.02
34586;BME280;20816;50.950;11.108;2024-01-15T12:57:37;96583.72;;;1.63;86.92
34586;BME280;20816;50.950;11.108;2024-01-15T13:00:05;96589.84;;;1.58;87.69
34586;BME280;20816;50.950;11.108;2024-01-15T13:02:40;96591.38;;;1.68;87.54
34586;BME280;20816;50.950;11.108;2024-01-15T13:05:09;96598.09;;;1.77;86.73